createdAt,value
2018-10-01T00:00:07.018Z,22.20
2018-10-01T00:02:35.417Z,22.20
2018-10-01T00:05:03.791Z,22.20
2018-10-01T00:07:32.166Z,22.20
2018-10-01T00:10:00.627Z,22.20
2018-10-01T00:12:29.032Z,22.20
2018-10-01T00:14:57.417Z,22.20
2018-10-01T00:17:25.791Z,22.20
2018-10-01T00:19:59.446Z,22.10
2018-10-01T00:22:33.315Z,22.20
2018-10-01T00:25:01.736Z,22.20
2018-10-01T00:27:30.236Z,22.20
2018-10-01T00:29:58.743Z,22.20
2018-10-01T00:32:27.196Z,22.20
2018-10-01T00:34:55.595Z,22.20
2018-10-01T00:37:23.976Z,22.20
2018-10-01T00:39:52.486Z,22.20
2018-10-01T00:42:20.895Z,22.20
2018-10-01T00:44:49.267Z,22.20
2018-10-01T00:47:17.664Z,22.20
2018-10-01T00:49:46.144Z,22.10
2018-10-01T00:52:14.526Z,22.10
2018-10-01T00:54:42.915Z,22.10
2018-10-01T00:57:11.366Z,22.10
2018-10-01T00:59:39.740Z,22.10
2018-10-01T01:02:08.151Z,22.10
2018-10-01T01:04:36.520Z,22.10
2018-10-01T01:07:05.467Z,22.10
2018-10-01T01:09:33.839Z,22.10
2018-10-01T01:12:02.263Z,22.10
2018-10-01T01:14:30.942Z,22.10
2018-10-01T01:16:59.466Z,22.10
2018-10-01T01:19:27.859Z,22.00
2018-10-01T01:21:56.256Z,22.00
2018-10-01T01:24:24.675Z,22.00
2018-10-01T01:26:53.295Z,22.00
2018-10-01T01:29:21.739Z,21.90
2018-10-01T01:31:50.464Z,21.90
2018-10-01T01:34:18.867Z,21.90
2018-10-01T01:36:47.267Z,21.80
2018-10-01T01:39:15.652Z,21.80
2018-10-01T01:41:44.028Z,21.80
2018-10-01T01:44:12.404Z,21.80
2018-10-01T01:46:40.786Z,21.80
2018-10-01T01:49:09.220Z,21.80
2018-10-01T01:51:37.598Z,21.80
2018-10-01T01:54:05.991Z,21.80
2018-10-01T01:56:34.403Z,21.80
2018-10-01T01:59:02.764Z,21.80
2018-10-01T02:01:31.143Z,21.80
2018-10-01T02:03:59.527Z,21.70
2018-10-01T02:06:27.914Z,21.70
2018-10-01T02:08:56.319Z,21.70
2018-10-01T02:11:24.856Z,21.70
2018-10-01T02:13:53.236Z,21.70
2018-10-01T02:16:21.612Z,21.70
2018-10-01T02:18:50.073Z,21.70
2018-10-01T02:21:18.464Z,21.70
2018-10-01T02:23:46.898Z,21.70
2018-10-01T02:26:15.288Z,21.70
2018-10-01T02:28:43.657Z,21.60
2018-10-01T02:31:12.058Z,21.70
2018-10-01T02:33:40.427Z,21.60
2018-10-01T02:36:08.803Z,21.60
2018-10-01T02:38:37.186Z,21.60
2018-10-01T02:41:06.069Z,21.60
2018-10-01T02:43:34.446Z,21.60
2018-10-01T02:46:03.063Z,21.60
2018-10-01T02:48:31.459Z,21.60
2018-10-01T02:51:00.129Z,21.60
2018-10-01T02:53:33.815Z,21.60
2018-10-01T02:56:02.185Z,21.60
2018-10-01T02:58:30.569Z,21.60
2018-10-01T03:00:58.951Z,21.60
2018-10-01T03:03:27.344Z,21.60
2018-10-01T03:05:55.781Z,21.60
2018-10-01T03:08:24.139Z,21.50
2018-10-01T03:10:52.519Z,21.50
2018-10-01T03:13:20.888Z,21.60
2018-10-01T03:15:49.267Z,21.60
2018-10-01T03:18:17.627Z,21.60
2018-10-01T03:20:46.011Z,21.60
2018-10-01T03:23:14.391Z,21.60
2018-10-01T03:25:42.828Z,21.50
2018-10-01T03:28:11.210Z,21.50
2018-10-01T03:30:39.579Z,21.50
2018-10-01T03:33:07.967Z,21.50
2018-10-01T03:35:36.348Z,21.50
2018-10-01T03:38:04.728Z,21.50
2018-10-01T03:40:33.203Z,21.50
2018-10-01T03:43:02.873Z,21.50
2018-10-01T03:45:31.256Z,21.50
2018-10-01T03:47:59.655Z,21.50
2018-10-01T03:50:28.023Z,21.50
2018-10-01T03:52:56.423Z,21.50
2018-10-01T03:55:24.785Z,21.50
2018-10-01T03:57:53.167Z,21.40
2018-10-01T04:00:21.581Z,21.40
2018-10-01T04:02:49.991Z,21.40
2018-10-01T04:05:18.365Z,21.50
2018-10-01T04:07:46.723Z,21.40
2018-10-01T04:10:15.080Z,21.40
2018-10-01T04:12:43.460Z,21.40
2018-10-01T04:15:11.857Z,21.40
2018-10-01T04:17:40.223Z,21.40
2018-10-01T04:20:08.624Z,21.40
2018-10-01T04:22:38.167Z,21.40
2018-10-01T04:25:07.554Z,21.40
2018-10-01T04:27:36.455Z,21.40
2018-10-01T04:30:05.912Z,21.40
2018-10-01T04:32:34.289Z,21.40
2018-10-01T04:35:02.678Z,21.40
2018-10-01T04:37:31.049Z,21.40
2018-10-01T04:39:59.935Z,21.40
2018-10-01T04:42:28.362Z,21.40
2018-10-01T04:44:56.769Z,21.40
2018-10-01T04:47:25.152Z,21.40
2018-10-01T04:49:53.523Z,21.30
2018-10-01T04:52:21.911Z,21.30
2018-10-01T04:54:50.291Z,21.40
2018-10-01T04:57:18.669Z,21.30
2018-10-01T04:59:47.034Z,21.30
2018-10-01T05:02:15.432Z,21.30
2018-10-01T05:04:43.814Z,21.30
2018-10-01T05:07:12.209Z,21.30
2018-10-01T05:09:40.691Z,21.30
2018-10-01T05:12:09.043Z,21.30
2018-10-01T05:14:37.458Z,21.30
2018-10-01T05:17:06.372Z,21.30
2018-10-01T05:19:34.972Z,21.20
2018-10-01T05:22:03.371Z,21.30
2018-10-01T05:24:32.772Z,21.30
2018-10-01T05:27:01.228Z,21.20
2018-10-01T05:29:29.619Z,21.30
2018-10-01T05:31:58.013Z,21.30
2018-10-01T05:34:26.387Z,21.30
2018-10-01T05:36:54.784Z,21.20
2018-10-01T05:39:23.169Z,21.20
2018-10-01T05:41:51.547Z,21.30
2018-10-01T05:44:19.935Z,21.20
2018-10-01T05:46:48.314Z,21.20
2018-10-01T05:49:16.746Z,21.20
2018-10-01T05:51:45.079Z,21.20
2018-10-01T05:54:13.464Z,21.20
2018-10-01T05:56:41.864Z,21.20
2018-10-01T05:59:10.802Z,21.20
2018-10-01T06:01:39.220Z,21.20
2018-10-01T06:04:07.608Z,21.20
2018-10-01T06:06:35.980Z,21.20
2018-10-01T06:09:06.580Z,21.20
2018-10-01T06:11:34.943Z,21.20
2018-10-01T06:14:03.314Z,21.20
2018-10-01T06:16:31.679Z,21.20
2018-10-01T06:19:00.042Z,21.20
2018-10-01T06:21:28.416Z,21.20
2018-10-01T06:23:56.794Z,21.20
2018-10-01T06:26:25.164Z,21.20
2018-10-01T06:28:53.535Z,21.20
2018-10-01T06:31:21.955Z,21.20
2018-10-01T06:33:50.343Z,21.20
2018-10-01T06:36:18.749Z,21.10
2018-10-01T06:38:47.096Z,21.10
2018-10-01T06:41:15.483Z,21.10
2018-10-01T06:43:43.882Z,21.10
2018-10-01T06:46:12.291Z,21.10
2018-10-01T06:48:40.672Z,21.10
2018-10-01T06:51:09.080Z,21.20
2018-10-01T06:53:37.444Z,21.10
2018-10-01T06:56:06.062Z,21.10
2018-10-01T06:58:34.423Z,21.10
2018-10-01T07:01:02.800Z,21.10
2018-10-01T07:03:31.195Z,21.10
2018-10-01T07:05:59.833Z,21.10
2018-10-01T07:08:28.166Z,21.10
2018-10-01T07:10:56.540Z,21.10
2018-10-01T07:13:25.373Z,21.10
2018-10-01T07:15:53.735Z,21.10
2018-10-01T07:18:22.200Z,21.10
2018-10-01T07:20:50.580Z,21.20
2018-10-01T07:23:19.012Z,21.20
2018-10-01T07:25:47.463Z,21.20
2018-10-01T07:28:15.932Z,21.20
2018-10-01T07:30:44.422Z,21.20
2018-10-01T07:33:12.823Z,21.20
2018-10-01T07:35:41.234Z,21.20
2018-10-01T07:38:09.615Z,21.20
2018-10-01T07:40:38.016Z,21.20
2018-10-01T07:43:06.428Z,21.20
2018-10-01T07:45:34.920Z,21.20
2018-10-01T07:48:03.303Z,21.20
2018-10-01T07:50:31.699Z,21.20
2018-10-01T07:53:00.081Z,21.10
2018-10-01T07:55:28.666Z,21.10
2018-10-01T07:57:57.131Z,21.20
2018-10-01T08:00:25.554Z,21.20
2018-10-01T08:02:54.023Z,21.20
2018-10-01T08:05:22.375Z,21.30
2018-10-01T08:07:51.151Z,21.30
2018-10-01T08:10:19.608Z,21.30
2018-10-01T08:12:48.102Z,21.40
2018-10-01T08:15:16.598Z,21.40
2018-10-01T08:17:44.987Z,21.50
2018-10-01T08:20:13.401Z,21.50
2018-10-01T08:22:41.740Z,21.50
2018-10-01T08:25:10.121Z,21.50
2018-10-01T08:27:38.514Z,21.40
2018-10-01T08:30:06.930Z,21.40
2018-10-01T08:32:35.384Z,21.40
2018-10-01T08:35:03.740Z,21.40
2018-10-01T08:37:32.108Z,21.40
2018-10-01T08:40:00.491Z,21.40
2018-10-01T08:42:28.871Z,21.40
2018-10-01T08:44:57.315Z,21.40
2018-10-01T08:47:25.825Z,21.50
2018-10-01T08:50:34.071Z,21.50
2018-10-01T08:53:08.986Z,21.50
2018-10-01T08:55:37.476Z,21.50
2018-10-01T08:58:05.878Z,21.50
2018-10-01T09:00:34.280Z,21.50
2018-10-01T09:03:02.797Z,21.60
2018-10-01T09:05:31.236Z,21.60
2018-10-01T09:07:59.750Z,21.60
2018-10-01T09:10:28.129Z,21.50
2018-10-01T09:12:56.633Z,21.60
2018-10-01T09:15:25.069Z,21.50
2018-10-01T09:17:53.479Z,21.50
2018-10-01T09:20:22.051Z,21.50
2018-10-01T09:22:50.599Z,21.60
2018-10-01T09:25:19.126Z,21.50
2018-10-01T09:27:47.607Z,21.50
2018-10-01T09:30:16.048Z,21.50
2018-10-01T09:32:44.460Z,21.50
2018-10-01T09:35:12.931Z,21.50
2018-10-01T09:37:41.291Z,21.60
2018-10-01T09:40:09.820Z,21.60
2018-10-01T09:42:38.202Z,21.60
2018-10-01T09:45:06.744Z,21.70
2018-10-01T09:47:35.153Z,21.70
2018-10-01T09:50:03.576Z,21.70
2018-10-01T09:52:32.065Z,21.80
2018-10-01T09:55:00.371Z,21.80
2018-10-01T09:57:28.752Z,21.80
2018-10-01T09:59:57.169Z,21.80
2018-10-01T10:02:25.615Z,21.80
2018-10-01T10:04:54.186Z,21.60
2018-10-01T10:07:22.471Z,21.80
2018-10-01T10:09:51.123Z,21.80
2018-10-01T10:12:19.528Z,21.80
2018-10-01T10:14:47.915Z,21.90
2018-10-01T10:17:16.400Z,21.90
2018-10-01T10:19:44.893Z,22.00
2018-10-01T10:22:13.370Z,22.00
2018-10-01T10:24:41.678Z,22.00
2018-10-01T10:27:10.128Z,22.00
2018-10-01T10:29:38.443Z,22.00
2018-10-01T10:32:06.894Z,22.00
2018-10-01T10:34:35.407Z,22.00
2018-10-01T10:37:03.792Z,22.00
2018-10-01T10:42:53.359Z,20.50
2018-10-01T10:57:05.092Z,22.10
2018-10-01T10:59:33.469Z,22.20
2018-10-01T11:02:01.945Z,22.30
2018-10-01T11:04:30.291Z,22.30
2018-10-01T11:06:58.684Z,22.30
2018-10-01T11:09:27.087Z,22.30
2018-10-01T11:11:55.482Z,22.30
2018-10-01T11:14:24.055Z,22.20
2018-10-01T11:16:52.375Z,22.20
2018-10-01T11:19:20.917Z,22.30
2018-10-01T11:21:49.195Z,22.30
2018-10-01T11:24:17.566Z,22.30
2018-10-01T11:26:45.999Z,22.40
2018-10-01T11:29:14.348Z,22.40
2018-10-01T11:31:42.780Z,22.40
2018-10-01T11:34:11.194Z,22.40
2018-10-01T11:36:39.719Z,22.40
2018-10-01T11:39:10.587Z,22.40
2018-10-01T11:41:39.076Z,22.40
2018-10-01T11:44:07.797Z,22.50
2018-10-01T11:46:36.272Z,22.40
2018-10-01T11:49:04.760Z,22.30
2018-10-01T11:51:33.207Z,22.30
2018-10-01T11:54:01.629Z,22.20
2018-10-01T11:56:30.139Z,22.20
2018-10-01T11:59:03.141Z,22.20
2018-10-01T12:01:31.612Z,22.20
2018-10-01T12:04:00.112Z,22.20
2018-10-01T12:06:28.520Z,22.30
2018-10-01T12:08:56.936Z,22.30
2018-10-01T12:11:25.371Z,22.30
2018-10-01T12:13:53.855Z,22.30
2018-10-01T12:16:22.238Z,22.30
2018-10-01T12:18:50.619Z,22.20
2018-10-01T12:21:19.132Z,22.20
2018-10-01T12:23:47.581Z,22.20
2018-10-01T12:26:16.120Z,22.20
2018-10-01T12:28:44.496Z,22.20
2018-10-01T12:31:12.896Z,22.20
2018-10-01T12:33:41.382Z,22.20
2018-10-01T12:36:09.893Z,22.20
2018-10-01T12:38:38.358Z,22.20
2018-10-01T12:41:06.925Z,22.10
2018-10-01T12:43:35.309Z,22.10
2018-10-01T12:46:03.705Z,22.10
2018-10-01T12:48:32.099Z,22.10
2018-10-01T12:51:01.327Z,22.10
2018-10-01T12:53:29.687Z,22.00
2018-10-01T12:55:58.071Z,22.00
2018-10-01T12:58:26.479Z,22.00
2018-10-01T13:00:54.860Z,22.00
2018-10-01T13:03:23.244Z,22.00
2018-10-01T13:05:51.705Z,21.90
2018-10-01T13:08:20.088Z,21.90
2018-10-01T13:10:48.471Z,21.90
2018-10-01T13:13:16.903Z,21.90
2018-10-01T13:15:45.409Z,21.90
2018-10-01T13:18:15.111Z,21.90
2018-10-01T13:20:43.572Z,21.90
2018-10-01T13:23:11.976Z,21.90
2018-10-01T13:25:40.371Z,21.90
2018-10-01T13:28:08.740Z,21.90
2018-10-01T13:30:37.243Z,21.90
2018-10-01T13:33:05.919Z,21.90
2018-10-01T13:35:34.367Z,21.90
2018-10-01T13:38:02.866Z,21.90
2018-10-01T13:40:32.291Z,21.90
2018-10-01T13:43:00.667Z,21.80
2018-10-01T13:45:29.076Z,21.80
2018-10-01T13:47:57.491Z,21.80
2018-10-01T13:50:25.878Z,21.80
2018-10-01T13:52:55.236Z,21.70
2018-10-01T13:55:23.653Z,21.80
2018-10-01T13:57:52.200Z,21.70
2018-10-01T14:00:20.636Z,21.80
2018-10-01T14:02:49.007Z,21.70
2018-10-01T14:05:17.475Z,21.70
2018-10-01T14:07:45.955Z,21.70
2018-10-01T14:10:14.313Z,21.70
2018-10-01T14:12:42.711Z,21.70
2018-10-01T14:15:11.116Z,21.70
2018-10-01T14:17:39.525Z,21.70
2018-10-01T14:20:08.043Z,21.70
2018-10-01T14:22:36.376Z,21.70
2018-10-01T14:25:04.868Z,21.70
2018-10-01T14:27:33.195Z,21.70
2018-10-01T14:30:01.589Z,21.70
2018-10-01T14:32:30.545Z,21.70
2018-10-01T14:34:58.955Z,21.70
2018-10-01T14:37:27.473Z,21.70
2018-10-01T14:39:55.852Z,21.70
2018-10-01T14:42:24.346Z,21.70
2018-10-01T14:44:52.812Z,21.70
2018-10-01T14:47:21.312Z,21.70
2018-10-01T14:49:49.704Z,21.70
2018-10-01T14:52:18.092Z,21.70
2018-10-01T14:54:46.498Z,21.70
2018-10-01T14:57:14.887Z,21.70
2018-10-01T14:59:43.816Z,21.60
2018-10-01T15:02:12.195Z,21.60
2018-10-01T15:04:40.635Z,21.60
2018-10-01T15:07:09.395Z,21.60
2018-10-01T15:09:37.771Z,21.60
2018-10-01T15:12:06.182Z,21.60
2018-10-01T15:14:34.555Z,21.60
2018-10-01T15:17:02.935Z,21.60
2018-10-01T15:19:31.745Z,21.60
2018-10-01T15:22:00.214Z,21.60
2018-10-01T15:24:28.604Z,21.60
2018-10-01T15:26:57.076Z,21.60
2018-10-01T15:29:25.480Z,21.60
2018-10-01T15:31:53.883Z,21.60
2018-10-01T15:34:22.252Z,21.60
2018-10-01T15:36:50.647Z,21.60
2018-10-01T15:39:19.097Z,21.50
2018-10-01T15:41:47.478Z,21.50
2018-10-01T15:44:16.828Z,21.50
2018-10-01T15:46:45.196Z,21.50
2018-10-01T15:49:13.558Z,21.50
2018-10-01T15:51:41.982Z,21.50
2018-10-01T15:54:10.447Z,21.50
2018-10-01T15:56:38.867Z,21.50
2018-10-01T15:59:07.252Z,21.50
2018-10-01T16:01:35.850Z,21.50
2018-10-01T16:04:04.438Z,21.40
2018-10-01T16:06:32.887Z,21.40
2018-10-01T16:09:01.338Z,21.40
2018-10-01T16:11:29.694Z,21.40
2018-10-01T16:13:58.076Z,21.40
2018-10-01T16:16:26.455Z,21.40
2018-10-01T16:18:54.840Z,21.40
2018-10-01T16:21:23.191Z,21.40
2018-10-01T16:23:51.590Z,21.40
2018-10-01T16:26:19.968Z,21.40
2018-10-01T16:28:48.401Z,21.40
2018-10-01T16:31:16.831Z,21.40
2018-10-01T16:33:45.241Z,21.30
2018-10-01T16:36:13.741Z,21.30
2018-10-01T16:38:42.348Z,21.40
2018-10-01T16:41:10.776Z,21.30
2018-10-01T16:43:39.492Z,21.30
2018-10-01T16:46:07.876Z,21.30
2018-10-01T16:48:36.304Z,21.30
2018-10-01T16:51:04.749Z,21.30
2018-10-01T16:53:33.340Z,21.30
2018-10-01T16:56:01.801Z,21.30
2018-10-01T16:58:30.187Z,21.30
2018-10-01T17:00:59.200Z,21.30
2018-10-01T17:03:27.601Z,21.30
2018-10-01T17:05:58.231Z,21.20
2018-10-01T17:08:27.827Z,21.20
2018-10-01T17:10:56.236Z,21.20
2018-10-01T17:13:25.043Z,21.30
2018-10-01T17:15:54.197Z,21.20
2018-10-01T17:18:22.979Z,21.20
2018-10-01T17:20:51.464Z,21.20
2018-10-01T17:23:19.873Z,21.20
2018-10-01T17:25:48.276Z,21.20
2018-10-01T17:28:16.841Z,21.20
2018-10-01T17:30:45.135Z,21.20
2018-10-01T17:33:13.528Z,21.20
2018-10-01T17:35:41.931Z,21.20
2018-10-01T17:38:10.445Z,21.20
2018-10-01T17:40:38.798Z,21.20
2018-10-01T17:43:07.360Z,21.20
2018-10-01T17:45:35.796Z,21.10
2018-10-01T17:48:04.236Z,21.10
2018-10-01T17:50:32.628Z,21.20
2018-10-01T17:53:01.532Z,21.20
2018-10-01T17:55:29.931Z,21.10
2018-10-01T17:57:58.495Z,21.10
2018-10-01T18:00:27.031Z,21.10
2018-10-01T18:02:55.453Z,21.10
2018-10-01T18:05:23.812Z,21.10
2018-10-01T18:07:52.247Z,21.10
2018-10-01T18:10:20.793Z,21.10
2018-10-01T18:12:49.402Z,21.10
2018-10-01T18:15:17.819Z,21.10
2018-10-01T18:17:46.219Z,21.10
2018-10-01T18:20:14.818Z,21.10
2018-10-01T18:22:43.387Z,21.10
2018-10-01T18:25:11.795Z,21.10
2018-10-01T18:27:40.172Z,21.10
2018-10-01T18:30:08.910Z,21.10
2018-10-01T18:32:37.429Z,21.20
2018-10-01T18:35:06.640Z,21.20
2018-10-01T18:37:35.083Z,21.10
2018-10-01T18:40:03.943Z,21.20
2018-10-01T18:42:32.353Z,21.10
2018-10-01T18:45:00.749Z,21.10
2018-10-01T18:47:29.251Z,21.10
2018-10-01T18:49:57.619Z,21.10
2018-10-01T18:52:26.076Z,21.10
2018-10-01T18:54:54.452Z,21.10
2018-10-01T18:57:22.887Z,21.10
2018-10-01T18:59:51.303Z,21.10
2018-10-01T19:02:19.728Z,21.10
2018-10-01T19:04:48.160Z,21.10
2018-10-01T19:07:16.556Z,21.10
2018-10-01T19:09:44.973Z,21.10
2018-10-01T19:12:13.378Z,21.10
2018-10-01T19:14:41.945Z,21.10
2018-10-01T19:17:10.383Z,21.10
2018-10-01T19:19:38.803Z,21.10
2018-10-01T19:22:07.197Z,21.10
2018-10-01T19:24:35.616Z,21.10
2018-10-01T19:27:04.038Z,21.10
2018-10-01T19:29:32.445Z,21.10
2018-10-01T19:32:00.863Z,21.10
2018-10-01T19:34:29.267Z,21.10
2018-10-01T19:36:57.632Z,21.10
2018-10-01T19:39:26.081Z,21.00
2018-10-01T19:41:54.443Z,21.00
2018-10-01T19:44:22.875Z,21.00
2018-10-01T19:46:51.267Z,21.10
2018-10-01T19:49:19.652Z,21.10
2018-10-01T19:51:48.043Z,21.10
2018-10-01T19:54:16.426Z,21.10
2018-10-01T19:56:44.841Z,21.10
2018-10-01T19:59:13.260Z,21.10
2018-10-01T20:01:41.690Z,21.10
2018-10-01T20:04:10.144Z,21.10
2018-10-01T20:06:38.780Z,21.10
2018-10-01T20:09:09.186Z,21.10
2018-10-01T20:11:37.703Z,21.10
2018-10-01T20:14:06.395Z,21.10
2018-10-01T20:16:34.962Z,21.10
2018-10-01T20:19:03.372Z,21.10
2018-10-01T20:21:31.807Z,21.10
2018-10-01T20:24:00.447Z,21.10
2018-10-01T20:26:28.951Z,21.10
2018-10-01T20:28:57.473Z,21.10
2018-10-01T20:31:25.681Z,21.10
2018-10-01T20:33:54.071Z,21.10
2018-10-01T20:36:22.528Z,21.10
2018-10-01T20:38:50.911Z,21.10
2018-10-01T20:41:19.385Z,21.10
2018-10-01T20:43:47.730Z,21.10
2018-10-01T20:46:16.108Z,21.10
2018-10-01T20:48:44.532Z,21.10
2018-10-01T20:51:12.942Z,21.10
2018-10-01T20:53:41.375Z,21.20
2018-10-01T20:56:09.741Z,21.20
2018-10-01T20:58:38.182Z,21.20
2018-10-01T21:01:06.607Z,21.20
2018-10-01T21:03:35.016Z,21.20
2018-10-01T21:06:03.468Z,21.20
2018-10-01T21:08:32.206Z,21.20
2018-10-01T21:11:00.618Z,21.20
2018-10-01T21:13:29.005Z,21.20
2018-10-01T21:15:57.376Z,21.20
2018-10-01T21:18:25.755Z,21.20
2018-10-01T21:20:54.129Z,21.20
2018-10-01T21:23:22.528Z,21.20
2018-10-01T21:25:50.932Z,21.30
2018-10-01T21:28:19.324Z,21.30
2018-10-01T21:30:47.847Z,21.30
2018-10-01T21:33:16.277Z,21.30
2018-10-01T21:35:44.908Z,21.30
2018-10-01T21:38:13.524Z,21.30
2018-10-01T21:40:41.970Z,21.30
2018-10-01T21:43:10.381Z,21.30
2018-10-01T21:45:38.796Z,21.30
2018-10-01T21:48:07.235Z,21.30
2018-10-01T21:50:35.670Z,21.30
2018-10-01T21:53:04.057Z,21.30
2018-10-01T21:55:32.789Z,21.30
2018-10-01T21:58:01.368Z,21.30
2018-10-01T22:00:35.033Z,21.30
2018-10-01T22:03:03.410Z,21.30
2018-10-01T22:05:31.815Z,21.30
2018-10-01T22:08:00.206Z,21.30
2018-10-01T22:10:28.606Z,21.30
2018-10-01T22:12:56.966Z,21.30
2018-10-01T22:15:27.253Z,21.30
2018-10-01T22:17:55.630Z,21.30
2018-10-01T22:20:24.115Z,21.30
2018-10-01T22:22:52.581Z,21.30
2018-10-01T22:25:20.951Z,21.30
2018-10-01T22:27:49.353Z,21.30
2018-10-01T22:30:17.863Z,21.30
2018-10-01T22:32:46.255Z,21.30
2018-10-01T22:35:14.640Z,21.30
2018-10-01T22:37:43.024Z,21.30
2018-10-01T22:40:11.412Z,21.30
2018-10-01T22:42:39.804Z,21.30
2018-10-01T22:45:08.223Z,21.30
2018-10-01T22:47:36.607Z,21.40
2018-10-01T22:50:05.136Z,21.40
2018-10-01T22:52:33.515Z,21.40
2018-10-01T22:55:01.890Z,21.40
2018-10-01T22:57:30.339Z,21.40
2018-10-01T22:59:58.715Z,21.40
2018-10-01T23:02:27.119Z,21.40
2018-10-01T23:04:55.516Z,21.40
2018-10-01T23:07:23.912Z,21.40
2018-10-01T23:09:52.266Z,21.40
2018-10-01T23:12:20.647Z,21.40
2018-10-01T23:14:49.032Z,21.40
2018-10-01T23:17:17.447Z,21.40
2018-10-01T23:19:45.807Z,21.40
2018-10-01T23:22:14.211Z,21.40
2018-10-01T23:24:42.575Z,21.30
2018-10-01T23:27:10.983Z,21.30
2018-10-01T23:29:39.415Z,21.20
2018-10-01T23:32:07.964Z,21.20
2018-10-01T23:34:36.219Z,21.20
2018-10-01T23:37:04.838Z,21.10
2018-10-01T23:39:33.210Z,21.10
2018-10-01T23:42:01.645Z,21.10
2018-10-01T23:44:30.265Z,21.10
2018-10-01T23:46:58.674Z,21.10
2018-10-01T23:49:27.130Z,21.10
2018-10-01T23:51:55.553Z,21.10
2018-10-01T23:54:23.934Z,21.10
2018-10-01T23:56:52.406Z,21.10
2018-10-01T23:59:20.795Z,21.10
